createdAt,value
2018-02-04T00:00:42.042Z,20.90
2018-02-04T00:01:41.974Z,20.50
2018-02-04T00:02:41.906Z,19.70
2018-02-04T00:03:41.838Z,20.80
2018-02-04T00:04:41.769Z,21.10
2018-02-04T00:05:41.701Z,20.60
2018-02-04T00:06:41.633Z,19.60
2018-02-04T00:07:41.565Z,22.90
2018-02-04T00:08:41.496Z,19.70
2018-02-04T00:09:41.428Z,21.30
2018-02-04T00:10:41.360Z,23.30
2018-02-04T00:11:41.291Z,26.20
2018-02-04T00:12:41.222Z,26.80
2018-02-04T00:13:41.155Z,33.80
2018-02-04T00:14:41.086Z,34.60
2018-02-04T00:15:41.020Z,27.70
2018-02-04T00:16:40.949Z,27.60
2018-02-04T00:17:40.880Z,24.00
2018-02-04T00:18:40.813Z,21.80
2018-02-04T00:19:40.745Z,23.50
2018-02-04T00:20:40.677Z,22.10
2018-02-04T00:21:40.609Z,21.20
2018-02-04T00:22:40.544Z,21.50
2018-02-04T00:23:40.473Z,25.90
2018-02-04T00:24:40.403Z,23.00
2018-02-04T00:25:40.336Z,23.10
2018-02-04T00:26:40.266Z,22.40
2018-02-04T00:27:40.199Z,23.30
2018-02-04T00:28:40.132Z,24.90
2018-02-04T00:29:40.061Z,22.70
2018-02-04T00:30:39.994Z,27.30
2018-02-04T00:31:39.925Z,22.20
2018-02-04T00:32:39.858Z,22.50
2018-02-04T00:33:39.788Z,23.40
2018-02-04T00:34:39.720Z,23.40
2018-02-04T00:35:39.651Z,24.70
2018-02-04T00:36:39.583Z,25.20
2018-02-04T00:37:39.516Z,22.30
2018-02-04T00:38:39.448Z,26.90
2018-02-04T00:39:39.378Z,23.60
2018-02-04T00:40:39.311Z,24.00
2018-02-04T00:41:39.243Z,26.10
2018-02-04T00:42:39.173Z,25.20
2018-02-04T00:43:39.106Z,25.70
2018-02-04T00:44:39.036Z,24.50
2018-02-04T00:45:38.968Z,23.50
2018-02-04T00:46:38.901Z,23.20
2018-02-04T00:47:38.832Z,24.60
2018-02-04T00:48:38.763Z,26.50
2018-02-04T00:49:38.694Z,24.40
2018-02-04T00:50:38.628Z,24.90
2018-02-04T00:51:38.559Z,24.60
2018-02-04T00:52:38.489Z,25.40
2018-02-04T00:53:38.421Z,23.80
2018-02-04T00:54:38.354Z,26.20
2018-02-04T00:55:38.286Z,26.90
2018-02-04T00:56:38.216Z,26.90
2018-02-04T00:57:38.148Z,26.60
2018-02-04T00:58:38.080Z,26.20
2018-02-04T00:59:38.011Z,25.30
2018-02-04T01:00:37.943Z,23.30
2018-02-04T01:01:37.879Z,26.10
2018-02-04T01:02:37.813Z,25.00
2018-02-04T01:03:38.063Z,25.60
2018-02-04T01:04:37.670Z,23.80
2018-02-04T01:05:37.603Z,24.90
2018-02-04T01:06:37.534Z,25.70
2018-02-04T01:07:37.465Z,25.00
2018-02-04T01:08:37.397Z,24.20
2018-02-04T01:09:37.328Z,25.20
2018-02-04T01:10:37.260Z,24.80
2018-02-04T01:11:37.192Z,23.90
2018-02-04T01:12:37.124Z,24.30
2018-02-04T01:13:37.055Z,25.90
2018-02-04T01:14:36.988Z,26.10
2018-02-04T01:15:36.921Z,24.50
2018-02-04T01:16:36.850Z,27.10
2018-02-04T01:17:36.782Z,24.20
2018-02-04T01:18:36.720Z,25.30
2018-02-04T01:19:36.645Z,27.30
2018-02-04T01:20:36.576Z,27.40
2018-02-04T01:21:36.541Z,31.00
2018-02-04T01:22:36.439Z,29.20
2018-02-04T01:23:36.373Z,27.10
2018-02-04T01:24:36.303Z,28.10
2018-02-04T01:25:36.235Z,28.10
2018-02-04T01:26:36.167Z,28.00
2018-02-04T01:27:36.100Z,32.10
2018-02-04T01:28:36.029Z,27.80
2018-02-04T01:29:35.961Z,26.80
2018-02-04T01:30:35.894Z,30.70
2018-02-04T01:31:35.827Z,30.00
2018-02-04T01:32:35.756Z,27.40
2018-02-04T01:33:35.689Z,31.30
2018-02-04T01:34:35.625Z,27.10
2018-02-04T01:35:35.555Z,31.30
2018-02-04T01:36:35.483Z,28.40
2018-02-04T01:37:35.415Z,29.90
2018-02-04T01:38:35.347Z,31.90
2018-02-04T01:39:35.291Z,30.90
2018-02-04T01:40:35.211Z,34.00
2018-02-04T01:41:35.141Z,30.20
2018-02-04T01:42:35.074Z,30.70
2018-02-04T01:43:35.006Z,32.20
2018-02-04T01:44:34.937Z,30.80
2018-02-04T01:45:34.874Z,31.80
2018-02-04T01:46:34.801Z,32.00
2018-02-04T01:47:34.733Z,34.40
2018-02-04T01:48:34.664Z,28.20
2018-02-04T01:49:34.596Z,30.80
2018-02-04T01:50:34.529Z,31.00
2018-02-04T01:51:34.460Z,32.70
2018-02-04T01:52:34.392Z,29.80
2018-02-04T01:53:34.323Z,33.50
2018-02-04T01:54:34.255Z,32.40
2018-02-04T01:55:34.186Z,31.00
2018-02-04T01:56:34.118Z,29.20
2018-02-04T01:57:34.054Z,30.00
2018-02-04T01:58:33.983Z,30.60
2018-02-04T01:59:33.914Z,29.70
2018-02-04T02:00:33.846Z,31.60
2018-02-04T02:01:33.777Z,32.90
2018-02-04T02:02:33.708Z,38.10
2018-02-04T02:03:33.641Z,33.30
2018-02-04T02:04:33.572Z,34.40
2018-02-04T02:05:33.503Z,33.90
2018-02-04T02:06:33.436Z,36.80
2018-02-04T02:07:33.368Z,32.20
2018-02-04T02:08:33.299Z,35.10
2018-02-04T02:09:33.231Z,35.60
2018-02-04T02:10:33.163Z,33.20
2018-02-04T02:11:33.096Z,32.20
2018-02-04T02:12:33.025Z,32.70
2018-02-04T02:13:32.957Z,36.10
2018-02-04T02:14:32.889Z,40.90
2018-02-04T02:15:32.821Z,30.00
2018-02-04T02:16:32.751Z,35.20
2018-02-04T02:17:32.684Z,30.60
2018-02-04T02:18:32.620Z,30.90
2018-02-04T02:19:32.548Z,31.70
2018-02-04T02:20:32.481Z,39.40
2018-02-04T02:21:32.411Z,38.10
2018-02-04T02:22:32.344Z,37.50
2018-02-04T02:23:32.275Z,32.20
2018-02-04T02:24:32.205Z,36.40
2018-02-04T02:25:32.138Z,36.10
2018-02-04T02:26:32.069Z,37.10
2018-02-04T02:27:32.002Z,35.30
2018-02-04T02:28:31.932Z,35.50
2018-02-04T02:29:31.864Z,31.20
2018-02-04T02:30:31.797Z,33.10
2018-02-04T02:31:31.728Z,36.80
2018-02-04T02:32:31.659Z,35.10
2018-02-04T02:33:31.590Z,35.10
2018-02-04T02:34:31.521Z,37.30
2018-02-04T02:35:31.454Z,33.20
2018-02-04T02:36:31.385Z,37.40
2018-02-04T02:37:31.317Z,36.00
2018-02-04T02:38:31.249Z,34.60
2018-02-04T02:39:31.180Z,38.60
2018-02-04T02:40:31.112Z,36.10
2018-02-04T02:41:31.093Z,35.50
2018-02-04T02:42:30.975Z,35.30
2018-02-04T02:43:30.907Z,37.70
2018-02-04T02:44:30.837Z,38.10
2018-02-04T02:45:30.770Z,38.50
2018-02-04T02:46:30.701Z,40.50
2018-02-04T02:47:30.655Z,39.40
2018-02-04T02:48:30.564Z,38.70
2018-02-04T02:49:30.495Z,38.90
2018-02-04T02:50:30.427Z,40.80
2018-02-04T02:51:30.360Z,39.90
2018-02-04T02:52:30.290Z,39.90
2018-02-04T02:53:30.222Z,43.10
2018-02-04T02:54:30.153Z,42.90
2018-02-04T02:55:30.086Z,35.10
2018-02-04T02:56:30.016Z,40.30
2018-02-04T02:57:29.948Z,36.80
2018-02-04T02:58:29.886Z,40.90
2018-02-04T02:59:29.811Z,35.70
2018-02-04T03:00:29.743Z,39.30
2018-02-04T03:01:29.675Z,34.90
2018-02-04T03:02:29.606Z,36.80
2018-02-04T03:03:29.540Z,36.40
2018-02-04T03:04:29.468Z,37.40
2018-02-04T03:05:29.401Z,39.10
2018-02-04T03:06:29.334Z,39.10
2018-02-04T03:07:29.265Z,38.50
2018-02-04T03:08:29.198Z,35.50
2018-02-04T03:09:29.129Z,38.20
2018-02-04T03:10:29.060Z,37.10
2018-02-04T03:11:28.993Z,38.50
2018-02-04T03:12:28.923Z,39.00
2018-02-04T03:13:28.854Z,36.90
2018-02-04T03:14:28.787Z,41.50
2018-02-04T03:15:28.718Z,38.20
2018-02-04T03:16:28.649Z,39.60
2018-02-04T03:17:28.581Z,39.20
2018-02-04T03:18:28.514Z,41.00
2018-02-04T03:19:28.447Z,38.60
2018-02-04T03:20:28.378Z,37.10
2018-02-04T03:21:28.307Z,36.10
2018-02-04T03:22:28.239Z,40.90
2018-02-04T03:23:28.172Z,39.10
2018-02-04T03:24:28.102Z,39.30
2018-02-04T03:25:28.035Z,37.50
2018-02-04T03:26:27.968Z,38.00
2018-02-04T03:27:27.898Z,41.70
2018-02-04T03:28:27.831Z,35.20
2018-02-04T03:29:27.761Z,39.30
2018-02-04T03:30:27.695Z,37.10
2018-02-04T03:31:27.626Z,41.20
2018-02-04T03:32:27.555Z,38.50
2018-02-04T03:33:27.489Z,35.00
2018-02-04T03:34:27.423Z,39.00
2018-02-04T03:35:27.351Z,35.10
2018-02-04T03:36:27.286Z,37.50
2018-02-04T03:37:27.213Z,36.10
2018-02-04T03:38:27.146Z,34.10
2018-02-04T03:39:27.081Z,32.70
2018-02-04T03:40:27.009Z,40.50
2018-02-04T03:41:26.941Z,41.40
2018-02-04T03:42:26.872Z,37.80
2018-02-04T03:43:26.804Z,31.80
2018-02-04T03:44:26.735Z,32.70
2018-02-04T03:45:26.666Z,35.50
2018-02-04T03:46:26.598Z,34.20
2018-02-04T03:47:26.530Z,40.50
2018-02-04T03:48:26.463Z,36.40
2018-02-04T03:49:26.393Z,35.40
2018-02-04T03:50:26.325Z,40.80
2018-02-04T03:51:26.579Z,31.40
2018-02-04T03:52:26.188Z,34.70
2018-02-04T03:53:26.120Z,31.40
2018-02-04T03:54:26.051Z,29.90
2018-02-04T03:55:25.983Z,37.20
2018-02-04T03:56:25.913Z,39.70
2018-02-04T03:57:25.845Z,36.30
2018-02-04T03:58:25.778Z,37.60
2018-02-04T03:59:25.707Z,33.90
2018-02-04T04:00:25.646Z,39.30
2018-02-04T04:01:25.570Z,36.90
2018-02-04T04:02:25.504Z,32.10
2018-02-04T04:03:25.434Z,35.40
2018-02-04T04:04:25.371Z,42.50
2018-02-04T04:05:25.296Z,32.40
2018-02-04T04:06:25.228Z,36.00
2018-02-04T04:07:25.160Z,34.10
2018-02-04T04:08:25.091Z,36.80
2018-02-04T04:09:25.029Z,30.70
2018-02-04T04:10:24.955Z,29.90
2018-02-04T04:11:24.886Z,34.00
2018-02-04T04:12:24.817Z,32.10
2018-02-04T04:13:24.752Z,36.20
2018-02-04T04:14:24.681Z,33.70
2018-02-04T04:15:24.613Z,34.60
2018-02-04T04:16:24.542Z,37.90
2018-02-04T04:17:24.475Z,34.20
2018-02-04T04:18:24.406Z,36.90
2018-02-04T04:19:24.339Z,36.70
2018-02-04T04:20:24.270Z,40.80
2018-02-04T04:21:24.201Z,39.50
2018-02-04T04:22:24.133Z,38.30
2018-02-04T04:23:24.065Z,43.70
2018-02-04T04:24:23.998Z,37.50
2018-02-04T04:25:23.927Z,35.10
2018-02-04T04:26:23.858Z,31.60
2018-02-04T04:27:23.790Z,42.60
2018-02-04T04:28:23.722Z,35.80
2018-02-04T04:29:23.656Z,33.50
2018-02-04T04:30:23.586Z,43.60
2018-02-04T04:31:23.517Z,41.70
2018-02-04T04:32:23.448Z,36.40
2018-02-04T04:33:23.380Z,40.40
2018-02-04T04:34:23.312Z,34.90
2018-02-04T04:35:23.243Z,34.80
2018-02-04T04:36:23.183Z,35.20
2018-02-04T04:37:23.106Z,48.40
2018-02-04T04:38:23.036Z,31.00
2018-02-04T04:39:22.971Z,37.40
2018-02-04T04:40:22.900Z,37.00
2018-02-04T04:41:22.831Z,39.40
2018-02-04T04:42:22.765Z,37.40
2018-02-04T04:43:22.696Z,39.00
2018-02-04T04:44:22.629Z,38.10
2018-02-04T04:45:22.559Z,39.50
2018-02-04T04:46:22.490Z,33.60
2018-02-04T04:47:22.423Z,37.90
2018-02-04T04:48:22.353Z,38.00
2018-02-04T04:49:22.284Z,39.30
2018-02-04T04:50:22.216Z,38.30
2018-02-04T04:51:22.148Z,30.90
2018-02-04T04:52:22.079Z,32.10
2018-02-04T04:53:22.012Z,31.80
2018-02-04T04:54:21.943Z,31.30
2018-02-04T04:55:21.875Z,30.80
2018-02-04T04:56:21.805Z,36.20
2018-02-04T04:57:21.737Z,41.50
2018-02-04T04:58:21.669Z,43.60
2018-02-04T04:59:21.601Z,35.90
2018-02-04T05:00:21.532Z,38.00
2018-02-04T05:01:21.464Z,33.00
2018-02-04T05:02:21.397Z,39.10
2018-02-04T05:03:21.327Z,36.80
2018-02-04T05:04:21.258Z,33.30
2018-02-04T05:05:21.190Z,37.60
2018-02-04T05:06:21.122Z,37.10
2018-02-04T05:07:21.054Z,34.10
2018-02-04T05:08:20.985Z,37.90
2018-02-04T05:09:20.916Z,44.20
2018-02-04T05:10:20.848Z,43.90
2018-02-04T05:11:20.781Z,40.90
2018-02-04T05:12:20.710Z,41.90
2018-02-04T05:13:20.642Z,44.70
2018-02-04T05:14:20.579Z,39.70
2018-02-04T05:15:20.509Z,43.10
2018-02-04T05:16:20.439Z,39.40
2018-02-04T05:17:20.369Z,42.40
2018-02-04T05:18:20.301Z,41.50
2018-02-04T05:19:20.233Z,46.90
2018-02-04T05:20:20.164Z,48.60
2018-02-04T05:21:20.096Z,42.40
2018-02-04T05:22:20.029Z,49.10
2018-02-04T05:23:19.959Z,40.90
2018-02-04T05:24:19.892Z,41.70
2018-02-04T05:25:19.821Z,40.20
2018-02-04T05:26:19.756Z,40.40
2018-02-04T05:27:19.685Z,40.40
2018-02-04T05:28:19.616Z,38.70
2018-02-04T05:29:19.547Z,45.30
2018-02-04T05:30:19.480Z,43.00
2018-02-04T05:31:19.411Z,41.70
2018-02-04T05:32:19.393Z,43.70
2018-02-04T05:33:19.275Z,40.80
2018-02-04T05:34:19.206Z,42.60
2018-02-04T05:35:19.139Z,41.20
2018-02-04T05:36:19.069Z,40.80
2018-02-04T05:37:19.002Z,44.40
2018-02-04T05:38:18.933Z,42.00
2018-02-04T05:39:18.865Z,42.70
2018-02-04T05:40:18.795Z,42.60
2018-02-04T05:41:18.729Z,42.70
2018-02-04T05:42:18.659Z,46.70
2018-02-04T05:43:18.593Z,39.40
2018-02-04T05:44:18.523Z,46.70
2018-02-04T05:45:18.454Z,46.50
2018-02-04T05:46:18.395Z,41.90
2018-02-04T05:47:18.318Z,45.60
2018-02-04T05:48:18.249Z,45.30
2018-02-04T05:49:18.180Z,40.30
2018-02-04T05:50:18.113Z,39.60
2018-02-04T05:51:18.045Z,39.70
2018-02-04T05:52:17.977Z,42.80
2018-02-04T05:53:17.908Z,39.30
2018-02-04T05:54:17.842Z,44.50
2018-02-04T05:55:17.771Z,43.60
2018-02-04T05:56:17.702Z,42.20
2018-02-04T05:57:17.635Z,46.40
2018-02-04T05:58:17.568Z,40.10
2018-02-04T05:59:17.498Z,49.70
2018-02-04T06:00:17.429Z,50.10
2018-02-04T06:01:17.655Z,51.50
2018-02-04T06:02:17.293Z,45.50
2018-02-04T06:03:17.225Z,41.20
2018-02-04T06:04:17.157Z,50.50
2018-02-04T06:05:17.089Z,41.60
2018-02-04T06:06:17.021Z,39.30
2018-02-04T06:07:16.953Z,42.10
2018-02-04T06:08:16.886Z,41.00
2018-02-04T06:09:16.815Z,43.00
2018-02-04T06:10:16.747Z,46.10
2018-02-04T06:11:16.679Z,45.60
2018-02-04T06:12:16.635Z,43.40
2018-02-04T06:13:16.542Z,40.20
2018-02-04T06:14:16.474Z,43.40
2018-02-04T06:15:16.407Z,43.80
2018-02-04T06:16:16.336Z,37.90
2018-02-04T06:17:16.270Z,43.30
2018-02-04T06:18:16.201Z,42.20
2018-02-04T06:19:16.133Z,39.70
2018-02-04T06:20:16.064Z,47.20
2018-02-04T06:21:16.054Z,50.00
2018-02-04T06:22:15.934Z,47.30
2018-02-04T06:23:15.860Z,45.90
2018-02-04T06:24:15.791Z,46.80
2018-02-04T06:25:15.723Z,48.60
2018-02-04T06:26:15.656Z,55.30
2018-02-04T06:27:15.587Z,44.20
2018-02-04T06:28:15.520Z,48.50
2018-02-04T06:29:15.502Z,49.30
2018-02-04T06:30:15.382Z,49.20
2018-02-04T06:31:15.315Z,49.40
2018-02-04T06:32:15.245Z,53.50
2018-02-04T06:33:15.178Z,46.80
2018-02-04T06:34:15.110Z,50.20
2018-02-04T06:35:15.043Z,48.20
2018-02-04T06:36:14.973Z,41.90
2018-02-04T06:37:14.907Z,45.00
2018-02-04T06:38:14.836Z,45.40
2018-02-04T06:39:14.770Z,42.40
2018-02-04T06:40:14.701Z,41.50
2018-02-04T06:41:14.633Z,47.10
2018-02-04T06:42:14.565Z,50.40
2018-02-04T06:43:14.497Z,49.40
2018-02-04T06:44:14.429Z,49.20
2018-02-04T06:45:14.363Z,50.20
2018-02-04T06:46:14.292Z,50.20
2018-02-04T06:47:14.225Z,48.40
2018-02-04T06:48:14.155Z,42.90
2018-02-04T06:49:14.088Z,47.70
2018-02-04T06:50:14.019Z,42.60
2018-02-04T06:51:13.951Z,39.50
2018-02-04T06:52:13.883Z,43.00
2018-02-04T06:53:13.814Z,46.20
2018-02-04T06:54:13.746Z,53.80
2018-02-04T06:55:13.679Z,47.40
2018-02-04T06:56:13.610Z,46.30
2018-02-04T06:57:13.542Z,53.40
2018-02-04T06:58:13.474Z,56.40
2018-02-04T06:59:13.407Z,49.10
2018-02-04T07:00:13.339Z,44.60
2018-02-04T07:01:13.268Z,46.10
2018-02-04T07:02:13.201Z,44.30
2018-02-04T07:03:13.133Z,42.10
2018-02-04T07:04:13.064Z,49.90
2018-02-04T07:05:12.996Z,44.70
2018-02-04T07:06:12.928Z,47.10
2018-02-04T07:07:12.861Z,45.00
2018-02-04T07:08:12.794Z,49.90
2018-02-04T07:09:12.724Z,49.30
2018-02-04T07:10:12.656Z,44.10
2018-02-04T07:11:12.590Z,50.90
2018-02-04T07:12:12.519Z,46.20
2018-02-04T07:13:12.452Z,49.00
2018-02-04T07:14:12.383Z,42.50
2018-02-04T07:15:12.316Z,44.40
2018-02-04T07:16:12.247Z,49.10
2018-02-04T07:17:12.181Z,50.90
2018-02-04T07:18:12.112Z,49.20
2018-02-04T07:19:12.045Z,49.50
2018-02-04T07:20:11.975Z,47.30
2018-02-04T07:21:11.907Z,51.50
2018-02-04T07:22:11.839Z,54.50
2018-02-04T07:23:11.770Z,52.60
2018-02-04T07:24:11.702Z,53.50
2018-02-04T07:25:11.634Z,50.70
2018-02-04T07:26:11.566Z,50.60
2018-02-04T07:27:11.498Z,45.20
2018-02-04T07:28:11.431Z,45.10
2018-02-04T07:29:11.361Z,46.80
2018-02-04T07:30:11.294Z,46.10
2018-02-04T07:31:11.227Z,49.10
2018-02-04T07:32:11.158Z,47.40
2018-02-04T07:33:11.088Z,55.80
2018-02-04T07:34:11.021Z,52.20
2018-02-04T07:35:10.953Z,55.60
2018-02-04T07:36:10.926Z,55.50
2018-02-04T07:37:10.816Z,53.20
2018-02-04T07:38:10.749Z,77.10
2018-02-04T07:39:10.680Z,57.60
2018-02-04T07:40:10.613Z,59.00
2018-02-04T07:41:10.543Z,48.70
2018-02-04T07:42:10.476Z,48.10
2018-02-04T07:43:10.410Z,49.90
2018-02-04T07:44:10.340Z,62.80
2018-02-04T07:45:10.271Z,80.00
2018-02-04T07:46:10.204Z,50.60
2018-02-04T07:47:10.136Z,52.90
2018-02-04T07:48:10.068Z,58.90
2018-02-04T07:49:09.999Z,56.60
2018-02-04T07:50:09.931Z,52.00
2018-02-04T07:51:09.864Z,47.20
2018-02-04T07:52:09.794Z,55.20
2018-02-04T07:53:09.726Z,50.70
2018-02-04T07:54:09.662Z,55.30
2018-02-04T07:55:09.590Z,51.00
2018-02-04T07:56:09.522Z,55.90
2018-02-04T07:57:09.454Z,48.30
2018-02-04T07:58:09.387Z,49.20
2018-02-04T07:59:09.323Z,56.30
2018-02-04T08:00:09.251Z,51.20
2018-02-04T08:01:09.183Z,57.30
2018-02-04T08:02:09.114Z,56.60
2018-02-04T08:03:09.047Z,53.50
2018-02-04T08:04:08.978Z,56.40
2018-02-04T08:05:08.912Z,57.20
2018-02-04T08:06:08.848Z,63.00
2018-02-04T08:07:08.775Z,73.70
2018-02-04T08:08:08.706Z,48.30
2018-02-04T08:09:08.638Z,55.30
2018-02-04T08:10:08.570Z,55.20
2018-02-04T08:11:08.504Z,48.20
2018-02-04T08:12:08.435Z,55.40
2018-02-04T08:13:08.366Z,59.30
2018-02-04T08:14:08.298Z,55.70
2018-02-04T08:15:08.230Z,50.20
2018-02-04T08:16:08.161Z,52.70
2018-02-04T08:17:08.094Z,45.80
2018-02-04T08:18:08.025Z,74.00
2018-02-04T08:19:07.962Z,69.50
2018-02-04T08:20:07.889Z,80.60
2018-02-04T08:21:07.821Z,52.00
2018-02-04T08:22:07.753Z,51.20
2018-02-04T08:23:07.685Z,64.80
2018-02-04T08:24:07.616Z,53.20
2018-02-04T08:25:07.548Z,57.20
2018-02-04T08:26:07.479Z,51.90
2018-02-04T08:27:07.413Z,52.60
2018-02-04T08:28:07.342Z,61.30
2018-02-04T08:29:07.274Z,50.30
2018-02-04T08:30:07.208Z,47.40
2018-02-04T08:31:07.139Z,58.40
2018-02-04T08:32:07.070Z,48.10
2018-02-04T08:33:07.002Z,52.40
2018-02-04T08:34:06.932Z,79.20
2018-02-04T08:35:06.866Z,53.50
2018-02-04T08:36:06.796Z,56.40
2018-02-04T08:37:06.727Z,59.00
2018-02-04T08:38:06.661Z,50.60
2018-02-04T08:39:06.590Z,51.60
2018-02-04T08:40:06.520Z,47.20
2018-02-04T08:41:06.455Z,54.60
2018-02-04T08:42:06.385Z,59.90
2018-02-04T08:43:06.319Z,62.80
2018-02-04T08:44:06.248Z,54.40
2018-02-04T08:45:06.179Z,55.70
2018-02-04T08:46:06.110Z,55.90
2018-02-04T08:47:06.044Z,51.00
2018-02-04T08:48:05.972Z,55.50
2018-02-04T08:49:05.904Z,60.70
2018-02-04T08:50:05.836Z,48.80
2018-02-04T08:51:05.767Z,64.30
2018-02-04T08:52:05.698Z,59.10
2018-02-04T08:53:05.629Z,57.40
2018-02-04T08:54:05.560Z,60.40
2018-02-04T08:55:05.493Z,64.10
2018-02-04T08:56:05.424Z,73.90
2018-02-04T08:57:05.353Z,65.00
2018-02-04T08:58:05.284Z,58.90
2018-02-04T08:59:05.223Z,62.40
2018-02-04T09:00:05.146Z,59.80
2018-02-04T09:01:05.078Z,63.60
2018-02-04T09:02:05.009Z,58.00
2018-02-04T09:03:04.940Z,63.70
2018-02-04T09:04:04.873Z,72.00
2018-02-04T09:05:04.803Z,65.30
2018-02-04T09:06:04.763Z,63.00
2018-02-04T09:07:04.667Z,71.20
2018-02-04T09:08:04.595Z,61.80
2018-02-04T09:09:04.526Z,71.40
2018-02-04T09:10:04.458Z,60.40
2018-02-04T09:11:04.390Z,66.30
2018-02-04T09:12:04.319Z,59.60
2018-02-04T09:13:04.250Z,94.90
2018-02-04T09:14:04.181Z,77.40
2018-02-04T09:15:04.113Z,72.30
2018-02-04T09:16:04.044Z,68.00
2018-02-04T09:17:03.974Z,74.40
2018-02-04T09:18:03.906Z,55.30
2018-02-04T09:19:03.838Z,56.00
2018-02-04T09:20:03.767Z,58.40
2018-02-04T09:21:03.698Z,57.30
2018-02-04T09:22:03.631Z,63.00
2018-02-04T09:23:03.562Z,57.10
2018-02-04T09:24:03.492Z,73.80
2018-02-04T09:25:03.425Z,59.40
2018-02-04T09:26:03.358Z,57.80
2018-02-04T09:27:03.284Z,67.10
2018-02-04T09:28:03.219Z,69.60
2018-02-04T09:29:03.147Z,58.20
2018-02-04T09:30:03.078Z,56.10
2018-02-04T09:31:03.010Z,57.10
2018-02-04T09:32:02.940Z,49.50
2018-02-04T09:33:02.871Z,48.30
2018-02-04T09:34:02.803Z,47.00
2018-02-04T09:35:02.734Z,49.00
2018-02-04T09:36:02.665Z,47.60
2018-02-04T09:37:02.595Z,49.10
2018-02-04T09:38:02.527Z,45.60
2018-02-04T09:39:02.460Z,46.40
2018-02-04T09:40:02.388Z,49.00
2018-02-04T09:41:02.320Z,39.10
2018-02-04T09:42:02.251Z,38.20
2018-02-04T09:43:02.182Z,34.90
2018-02-04T09:44:02.112Z,32.60
2018-02-04T09:45:02.045Z,25.70
2018-02-04T09:46:01.978Z,29.40
2018-02-04T09:47:01.907Z,27.40
2018-02-04T09:48:01.837Z,24.80
2018-02-04T09:49:01.768Z,26.80
2018-02-04T09:50:01.699Z,25.40
2018-02-04T09:51:01.629Z,23.80
2018-02-04T09:52:01.559Z,21.50
2018-02-04T09:53:01.493Z,21.70
2018-02-04T09:54:01.421Z,23.40
2018-02-04T09:55:01.352Z,20.00
2018-02-04T09:56:01.282Z,20.00
2018-02-04T09:57:01.213Z,18.60
2018-02-04T09:58:01.143Z,20.10
2018-02-04T09:59:01.075Z,18.80
2018-02-04T10:00:01.011Z,19.50
2018-02-04T10:01:00.935Z,20.50
2018-02-04T10:02:00.910Z,20.20
2018-02-04T10:03:00.797Z,20.00
2018-02-04T10:04:00.726Z,20.10
2018-02-04T10:05:00.658Z,20.30
2018-02-04T10:06:00.589Z,20.50
2018-02-04T10:07:00.520Z,19.80
2018-02-04T10:08:00.449Z,19.70
2018-02-04T10:09:00.383Z,18.30
2018-02-04T10:10:00.317Z,17.90
2018-02-04T10:11:00.242Z,19.20
2018-02-04T10:12:00.173Z,19.70
2018-02-04T10:13:00.103Z,18.90
2018-02-04T10:14:00.036Z,19.70
2018-02-04T10:14:59.966Z,20.70
2018-02-04T10:15:59.996Z,18.80
2018-02-04T10:16:59.827Z,20.40
2018-02-04T10:17:59.758Z,20.30
2018-02-04T10:18:59.691Z,20.60
2018-02-04T10:19:59.621Z,20.30
2018-02-04T10:20:59.561Z,22.60
2018-02-04T10:21:59.482Z,22.20
2018-02-04T10:22:59.414Z,25.80
2018-02-04T10:23:59.346Z,24.20
2018-02-04T10:24:59.277Z,24.90
2018-02-04T10:25:59.210Z,24.30
2018-02-04T10:26:59.145Z,24.80
2018-02-04T10:27:59.076Z,27.30
2018-02-04T10:28:59.004Z,26.10
2018-02-04T10:29:58.937Z,24.90
2018-02-04T10:30:58.868Z,23.00
2018-02-04T10:31:58.800Z,22.60
2018-02-04T10:32:58.732Z,23.90
2018-02-04T10:33:58.664Z,25.10
2018-02-04T10:34:58.595Z,26.80
2018-02-04T10:35:58.526Z,23.10
2018-02-04T10:36:58.458Z,25.10
2018-02-04T10:37:58.391Z,26.40
2018-02-04T10:38:58.321Z,24.80
2018-02-04T10:39:58.252Z,24.00
2018-02-04T10:40:58.184Z,24.50
2018-02-04T10:41:58.117Z,26.70
2018-02-04T10:42:58.050Z,25.50
2018-02-04T10:43:57.980Z,25.90
2018-02-04T10:44:57.912Z,28.10
2018-02-04T10:45:57.843Z,26.30
2018-02-04T10:46:57.774Z,26.20
2018-02-04T10:47:57.706Z,27.80
2018-02-04T10:48:57.641Z,24.40
2018-02-04T10:49:57.571Z,24.40
2018-02-04T10:50:57.501Z,27.50
2018-02-04T10:51:57.432Z,29.20
2018-02-04T10:52:57.364Z,30.90
2018-02-04T10:53:57.296Z,26.80
2018-02-04T10:54:57.229Z,27.70
2018-02-04T10:55:57.159Z,23.60
2018-02-04T10:56:57.090Z,24.20
2018-02-04T10:57:57.025Z,24.60
2018-02-04T10:58:56.955Z,22.80
2018-02-04T10:59:56.886Z,21.80
2018-02-04T11:00:56.824Z,20.50
2018-02-04T11:01:56.749Z,21.00
2018-02-04T11:02:56.681Z,22.70
2018-02-04T11:03:56.614Z,23.10
2018-02-04T11:04:56.548Z,23.10
2018-02-04T11:05:56.478Z,24.10
2018-02-04T11:06:56.410Z,20.00
2018-02-04T11:07:56.341Z,25.30
2018-02-04T11:08:56.273Z,26.10
2018-02-04T11:09:56.208Z,24.00
2018-02-04T11:10:56.139Z,22.40
2018-02-04T11:11:56.069Z,23.60
2018-02-04T11:12:56.077Z,22.40
2018-02-04T11:13:55.934Z,23.70
2018-02-04T11:14:55.867Z,24.20
2018-02-04T11:15:55.802Z,23.70
2018-02-04T11:16:55.729Z,23.10
2018-02-04T11:17:55.663Z,21.80
2018-02-04T11:18:55.594Z,27.00
2018-02-04T11:19:55.527Z,24.10
2018-02-04T11:20:55.458Z,22.90
2018-02-04T11:21:55.438Z,27.60
2018-02-04T11:22:55.323Z,23.50
2018-02-04T11:23:55.253Z,22.20
2018-02-04T11:24:55.186Z,18.20
2018-02-04T11:25:55.119Z,22.50
2018-02-04T11:26:55.051Z,19.50
2018-02-04T11:27:54.983Z,21.00
2018-02-04T11:28:54.914Z,21.40
2018-02-04T11:29:54.847Z,23.90
2018-02-04T11:30:54.780Z,22.10
2018-02-04T11:31:54.712Z,22.50
2018-02-04T11:32:54.644Z,24.90
2018-02-04T11:33:54.576Z,19.90
2018-02-04T11:34:54.509Z,19.30
2018-02-04T11:35:54.440Z,21.20
2018-02-04T11:36:54.373Z,19.50
2018-02-04T11:37:54.304Z,21.30
2018-02-04T11:38:54.235Z,23.80
2018-02-04T11:39:54.168Z,24.60
2018-02-04T11:40:54.099Z,19.60
2018-02-04T11:41:54.033Z,17.60
2018-02-04T11:42:53.965Z,22.90
2018-02-04T11:43:53.895Z,21.60
2018-02-04T11:44:53.829Z,19.10
2018-02-04T11:45:53.760Z,19.80
2018-02-04T11:46:53.692Z,20.80
2018-02-04T11:47:53.624Z,21.00
2018-02-04T11:48:53.555Z,22.90
2018-02-04T11:49:53.487Z,21.40
2018-02-04T11:50:53.419Z,24.40
2018-02-04T11:51:53.350Z,20.00
2018-02-04T11:52:53.307Z,20.20
2018-02-04T11:53:53.215Z,18.30
2018-02-04T11:54:53.146Z,21.90
2018-02-04T11:55:53.081Z,21.30
2018-02-04T11:56:53.011Z,18.80
2018-02-04T11:57:52.944Z,21.20
2018-02-04T11:58:52.876Z,20.90
2018-02-04T11:59:52.806Z,21.10
2018-02-04T12:00:52.739Z,22.20
2018-02-04T12:01:52.671Z,19.90
2018-02-04T12:02:52.604Z,22.30
2018-02-04T12:03:52.536Z,20.60
2018-02-04T12:04:52.467Z,23.80
2018-02-04T12:05:52.398Z,20.60
2018-02-04T12:06:52.331Z,21.00
2018-02-04T12:07:52.267Z,19.40
2018-02-04T12:08:52.196Z,19.50
2018-02-04T12:09:52.127Z,21.90
2018-02-04T12:10:52.060Z,20.30
2018-02-04T12:11:51.989Z,22.20
2018-02-04T12:12:51.923Z,20.40
2018-02-04T12:13:51.854Z,23.20
2018-02-04T12:14:51.787Z,22.70
2018-02-04T12:15:51.717Z,22.80
2018-02-04T12:16:51.650Z,23.80
2018-02-04T12:17:51.583Z,24.60
2018-02-04T12:18:51.544Z,23.70
2018-02-04T12:19:51.446Z,22.20
2018-02-04T12:20:51.383Z,24.50
2018-02-04T12:21:51.309Z,25.90
2018-02-04T12:22:51.242Z,22.10
2018-02-04T12:23:51.173Z,27.00
2018-02-04T12:24:51.104Z,26.20
2018-02-04T12:25:51.036Z,24.00
2018-02-04T12:26:50.970Z,24.70
2018-02-04T12:27:50.901Z,24.70
2018-02-04T12:28:50.833Z,26.40
2018-02-04T12:29:50.775Z,22.80
2018-02-04T12:30:50.696Z,26.50
2018-02-04T12:31:50.627Z,24.30
2018-02-04T12:32:50.567Z,25.50
2018-02-04T12:33:50.492Z,26.80
2018-02-04T12:34:50.424Z,21.00
2018-02-04T12:35:50.354Z,22.80
2018-02-04T12:36:50.289Z,24.50
2018-02-04T12:37:50.219Z,24.40
2018-02-04T12:38:50.150Z,24.10
2018-02-04T12:39:50.082Z,23.70
2018-02-04T12:40:50.013Z,24.20
2018-02-04T12:41:49.947Z,25.70
2018-02-04T12:42:49.878Z,21.60
2018-02-04T12:43:49.811Z,24.70
2018-02-04T12:44:49.741Z,28.70
2018-02-04T12:45:49.674Z,23.70
2018-02-04T12:46:49.605Z,25.90
2018-02-04T12:47:49.537Z,24.70
2018-02-04T12:48:49.469Z,26.20
2018-02-04T12:49:49.399Z,22.50
2018-02-04T12:50:49.332Z,24.00
2018-02-04T12:51:49.265Z,23.50